Domov               UVHVVR             MKGP            O straneh              
ZDRAVSTVENO VARSTVO RASTLIN
  MREŽA AGROMET. POSTAJ
 ► PROGNOSTIČNA OBVESTILA
AGROMETEOROLOŠKI PODATKI -
ARSO
OBVLADOVANJE TVEGANJ ZARADI
NEUGODNIH VREMENSKIH RAZMER
  ► NARAVNE NESREČE
  ► SUŠA/MOČA
  ► NAMAKANJE
  ► ŽLED (gozdarstvo)
KARTOGRAFSKI PRIKAZI
SPLETNE POVEZAVE
PROJEKTI IN PUBLIKACIJE

AGROMETEOROLOŠKA MREŽA: VREMENSKE POSTAJE IN FENOLOŠKA OPAZOVANJA

Pregled podatkov za lokacijo Stara Nova vas, meteorološka postaja 49162

Pregled senzorjev na lokaciji

ID Ime Zadnja
vrednost
Datum
zadnje
spremembe
Tip
senzorja
3704 Temperatura 2 m ( °C) 16,78 °C 19.10.2017 14:59 50YA
3705 Relativna vlaga 2 m (% RH) 80,42 % RH 19.10.2017 15:00 50YA
3706 Omočenost lista (U) 0 U 19.10.2017 15:00 A730WET
3707 Sončno sevanje (W/m2) 358,07 W/m2 19.10.2017 15:00 Pyranometer SP-Lite
3708 Temperatura tal ( °C) 11,58 °C 19.10.2017 14:59 99TG411E
3709 Hitrost vetra (km/h) 2,69 km/h 19.10.2017 15:00 566.2S-176 (200km/h)
3710 Smer vetra (°) 99,91 ° 19.10.2017 15:00 566.2S-130
3711 Padavine 0.2 mm (mm) 0 mm 19.10.2017 15:00 Rain-O-Matic

Pregled podatkov zadnjih 24 ur

Zap.
št.
Datum in čas Stara Nova vas
Hitrost
vetra
Omočenost
lista
Padavine
0.2
mm
Relativna
vlaga
2
m
Smer
vetra
Sončno
sevanje
Temperatura
2
m
Temperatura
tal
0 19.10.2017 14:00 2,69 0 0 80,42 99,91 358,07 16,78 11,58
1 19.10.2017 13:30 3,98 0 0 83,95 89,83 396,83 16,15 11,5
2 19.10.2017 13:00 4,49 0 0 87,16 74,52 427,65 15,47 11,39
3 19.10.2017 12:30 3,69 0 0 95,96 71,54 437,72 14,5 11,26
4 19.10.2017 12:00 4,67 1 0 100 57,13 393,29 12,96 11,07
5 19.10.2017 11:30 4,43 9 0 100 30,38 258,49 11,88 10,88
6 19.10.2017 11:00 2,76 10 0 100 31,93 173,19 11,32 10,73
7 19.10.2017 10:30 1,69 10 0 100 41,7 135,47 10,9 10,59
8 19.10.2017 10:00 3,65 10 0 100 355,65 113,16 10,68 10,45
9 19.10.2017 09:30 1,95 10 0 100 329,22 101,23 10,44 10,35
10 19.10.2017 09:00 0,92 10 0 100 307,62 95,46 9,82 10,24
11 19.10.2017 08:30 4 10 0 100 340,74 83,96 8,61 10,14
12 19.10.2017 08:00 2,13 10 0 100 309,59 77,49 6,96 10
13 19.10.2017 07:30 0,11 10 0 100 228,96 29,05 4,88 9,95
14 19.10.2017 07:00 0,11 10 0 100 232,4 18,92 3,8 9,96
15 19.10.2017 06:30 0,11 10 0 100 317,22 4,18 3,67 10,01
16 19.10.2017 06:00 0,11 10 0 100 329,34 0,52 3,83 10,08
17 19.10.2017 05:30 0,11 10 0 100 314,04 0,52 3,38 10,15
18 19.10.2017 05:00 0,11 10 0 100 195,88 0,58 3,83 10,23
19 19.10.2017 04:30 0,11 10 0 100 274,55 0,58 3,85 10,31
20 19.10.2017 04:00 0,11 10 0 100 216,09 0,52 4,13 10,4
21 19.10.2017 03:30 0,32 10 0 100 214,66 0,52 4,72 10,48
22 19.10.2017 03:00 0,33 10 0 100 226,33 0,55 5,18 10,56
23 19.10.2017 02:30 0,26 10 0 100 194,86 0,49 5,48 10,67
24 19.10.2017 02:00 0,11 10 0 100 233,11 0,43 6,21 10,75
25 19.10.2017 01:30 0,11 10 0 100 319,05 0,55 6,6 10,85
26 19.10.2017 01:00 0,11 10 0 100 315,39 0,52 6,54 10,96
27 19.10.2017 00:30 0,11 10 0 99,78 301,85 0,58 7,46 11,06
28 19.10.2017 00:00 0,49 10 0 95,38 23,34 8,28 11,15
29 18.10.2017 23:30 0,11 10 0 92,82 119,76 9,74 11,26
30 18.10.2017 23:00 0,11 10 0 92,91 72,14 9,45 11,33
31 18.10.2017 22:30 0,67 10 0 90,44 321,88 9,8 11,42
32 18.10.2017 22:00 1,56 10 0 90,92 288,18 10,19 11,51
33 18.10.2017 21:30 0,71 10 0 90,67 112,27 9,71 11,6
34 18.10.2017 21:00 0,5 10 0 85,84 250,4 11,18 11,7
35 18.10.2017 20:30 1,21 10 0 93,3 78,43 10,58 11,8
36 18.10.2017 20:00 0,26 10 0 97,23 91,01 10,19 11,92
37 18.10.2017 19:30 1,03 10 0 94,43 72,13 10,97 12,05
38 18.10.2017 19:00 3,85 6 0 90,97 196,87 11,74 12,17
39 18.10.2017 18:30 0,57 1 0 85,82 195,33 12,86 12,3
40 18.10.2017 18:00 0,6 0 0 79,91 325,77 14,24 12,41
41 18.10.2017 17:30 3,89 0 0 69,19 121,65 16,88 12,52
42 18.10.2017 17:00 5,81 0 0 65,93 187,53 24,87 18,21 12,6
43 18.10.2017 16:30 6,94 0 0 60,86 188,81 75,56 19,91 12,66
© 2011 Ministrstvo za kmetijstvo, gozdarstvo in prehrano. Vse pravice pridržane.